createdAt,value
2023-02-24T00:02:00.930Z,5.78
2023-02-24T00:04:32.550Z,5.69
2023-02-24T00:07:00.787Z,5.64
2023-02-24T00:09:31.699Z,5.61
2023-02-24T00:12:05.676Z,5.57
2023-02-24T00:14:36.618Z,5.48
2023-02-24T00:17:08.069Z,5.40
2023-02-24T00:19:37.501Z,5.34
2023-02-24T00:22:06.757Z,5.37
2023-02-24T00:24:36.682Z,5.36
2023-02-24T00:27:12.385Z,5.29
2023-02-24T00:29:42.389Z,5.29
2023-02-24T00:32:13.825Z,5.28
2023-02-24T00:34:42.615Z,5.25
2023-02-24T00:37:13.224Z,5.22
2023-02-24T00:39:42.428Z,5.24
2023-02-24T00:42:10.134Z,5.16
2023-02-24T00:44:40.566Z,5.20
2023-02-24T00:47:10.636Z,5.16
2023-02-24T00:49:42.759Z,5.14
2023-02-24T00:52:14.660Z,5.09
2023-02-24T00:54:43.391Z,4.99
2023-02-24T00:57:11.665Z,4.90
2023-02-24T00:59:40.535Z,4.89
2023-02-24T01:02:08.999Z,4.90
2023-02-24T01:04:37.973Z,4.93
2023-02-24T01:07:11.169Z,4.96
2023-02-24T01:09:42.530Z,4.99
2023-02-24T01:12:27.697Z,4.98
2023-02-24T01:14:56.943Z,5.00
2023-02-24T01:17:24.683Z,5.00
2023-02-24T01:20:00.764Z,4.98
2023-02-24T01:22:29.223Z,5.00
2023-02-24T01:24:56.870Z,4.97
2023-02-24T01:27:25.436Z,4.96
2023-02-24T01:29:54.185Z,4.95
2023-02-24T01:32:22.032Z,4.96
2023-02-24T01:34:53.639Z,4.94
2023-02-24T01:37:21.521Z,4.77
2023-02-24T01:39:51.782Z,4.66
2023-02-24T01:42:22.178Z,4.65
2023-02-24T01:44:52.762Z,4.65
2023-02-24T01:47:21.949Z,4.76
2023-02-24T01:49:54.190Z,4.76
2023-02-24T01:52:25.717Z,4.80
2023-02-24T01:55:04.667Z,4.86
2023-02-24T01:57:36.303Z,4.88
2023-02-24T02:00:11.544Z,4.89
2023-02-24T02:02:42.947Z,4.89
2023-02-24T02:05:12.456Z,4.89
2023-02-24T02:07:42.047Z,4.88
2023-02-24T02:10:11.463Z,4.89
2023-02-24T02:12:44.587Z,4.94
2023-02-24T02:15:15.687Z,4.93
2023-02-24T02:17:45.942Z,4.97
2023-02-24T02:20:24.626Z,5.03
2023-02-24T02:23:21.719Z,4.99
2023-02-24T02:26:09.123Z,4.99
2023-02-24T02:28:54.159Z,4.95
2023-02-24T02:31:46.816Z,4.96
2023-02-24T02:34:33.825Z,4.99
2023-02-24T02:37:13.757Z,4.92
2023-02-24T02:40:00.349Z,4.81
2023-02-24T02:42:30.982Z,4.86
2023-02-24T02:45:06.190Z,4.87
2023-02-24T02:47:41.442Z,4.88
2023-02-24T02:50:13.205Z,4.92
2023-02-24T02:52:43.506Z,4.88
2023-02-24T02:55:22.818Z,4.87
2023-02-24T02:57:53.518Z,4.87
2023-02-24T03:00:30.269Z,4.83
2023-02-24T03:03:09.059Z,4.82
2023-02-24T03:05:47.241Z,4.81
2023-02-24T03:08:25.900Z,4.75
2023-02-24T03:10:57.731Z,4.65
2023-02-24T03:13:31.139Z,4.62
2023-02-24T03:16:04.652Z,4.58
2023-02-24T03:18:38.188Z,4.54
2023-02-24T03:21:08.079Z,4.51
2023-02-24T03:23:40.691Z,4.54
2023-02-24T03:26:17.319Z,4.54
2023-02-24T03:29:07.054Z,4.58
2023-02-24T03:31:47.116Z,4.53
2023-02-24T03:34:41.862Z,4.43
2023-02-24T03:37:11.410Z,4.42
2023-02-24T03:39:39.835Z,4.47
2023-02-24T03:42:13.338Z,4.46
2023-02-24T03:44:41.532Z,4.47
2023-02-24T03:47:10.198Z,4.46
2023-02-24T03:49:39.886Z,4.49
2023-02-24T03:52:13.523Z,4.54
2023-02-24T03:55:12.363Z,4.57
2023-02-24T03:57:55.731Z,4.55
2023-02-24T04:00:35.831Z,4.50
2023-02-24T04:03:25.719Z,4.50
2023-02-24T04:06:16.218Z,4.53
2023-02-24T04:08:53.605Z,4.56
2023-02-24T04:11:27.471Z,4.56
2023-02-24T04:14:06.868Z,4.57
2023-02-24T04:16:41.694Z,4.57
2023-02-24T04:19:14.233Z,4.55
2023-02-24T04:21:44.531Z,4.45
2023-02-24T04:24:16.543Z,4.47
2023-02-24T04:26:46.573Z,4.44
2023-02-24T04:29:24.054Z,4.37
2023-02-24T04:31:58.955Z,4.38
2023-02-24T04:34:32.747Z,4.34
2023-02-24T04:37:03.622Z,4.28
2023-02-24T04:39:33.119Z,4.22
2023-02-24T04:42:02.068Z,4.08
2023-02-24T04:44:30.233Z,4.15
2023-02-24T04:46:59.152Z,4.16
2023-02-24T04:49:28.579Z,4.10
2023-02-24T04:51:58.185Z,4.11
2023-02-24T04:54:25.810Z,4.10
2023-02-24T04:56:54.126Z,4.11
2023-02-24T04:59:22.511Z,4.10
2023-02-24T05:01:55.030Z,4.04
2023-02-24T05:04:21.871Z,4.05
2023-02-24T05:06:50.512Z,4.03
2023-02-24T05:09:19.219Z,3.98
2023-02-24T05:11:49.510Z,4.00
2023-02-24T05:14:21.079Z,3.95
2023-02-24T05:16:51.117Z,3.97
2023-02-24T05:19:35.634Z,3.90
2023-02-24T05:22:07.831Z,3.89
2023-02-24T05:24:35.556Z,3.86
2023-02-24T05:27:04.410Z,3.91
2023-02-24T05:29:35.410Z,3.98
2023-02-24T05:32:06.344Z,4.01
2023-02-24T05:34:36.318Z,4.06
2023-02-24T05:37:10.411Z,4.06
2023-02-24T05:39:41.341Z,4.12
2023-02-24T05:42:08.502Z,4.12
2023-02-24T05:44:36.409Z,4.13
2023-02-24T05:47:06.118Z,4.13
2023-02-24T05:49:35.680Z,4.15
2023-02-24T05:52:10.028Z,4.17
2023-02-24T05:54:40.324Z,4.19
2023-02-24T05:57:12.723Z,4.24
2023-02-24T05:59:42.375Z,4.25
2023-02-24T06:02:13.580Z,4.25
2023-02-24T06:04:58.875Z,4.24
2023-02-24T06:07:28.835Z,4.23
2023-02-24T06:09:58.410Z,4.26
2023-02-24T06:12:31.786Z,4.27
2023-02-24T06:15:02.426Z,4.33
2023-02-24T06:17:29.931Z,4.31
2023-02-24T06:19:58.436Z,4.30
2023-02-24T06:22:27.512Z,4.31
2023-02-24T06:24:57.386Z,4.32
2023-02-24T06:27:25.597Z,4.32
2023-02-24T06:29:55.055Z,4.34
2023-02-24T06:32:26.274Z,4.36
2023-02-24T06:34:55.660Z,4.36
2023-02-24T06:37:26.248Z,4.37
2023-02-24T06:39:54.003Z,4.40
2023-02-24T06:42:25.924Z,4.39
2023-02-24T06:44:55.273Z,4.45
2023-02-24T06:47:24.326Z,4.51
2023-02-24T06:49:53.436Z,4.54
2023-02-24T06:52:22.119Z,4.59
2023-02-24T06:54:52.537Z,4.59
2023-02-24T06:57:21.595Z,4.62
2023-02-24T06:59:49.784Z,4.62
2023-02-24T07:02:17.713Z,4.65
2023-02-24T07:04:49.942Z,4.67
2023-02-24T07:07:19.826Z,4.70
2023-02-24T07:09:47.615Z,4.72
2023-02-24T07:12:21.424Z,4.78
2023-02-24T07:14:51.046Z,4.78
2023-02-24T07:17:21.052Z,4.83
2023-02-24T07:19:49.040Z,4.90
2023-02-24T07:22:18.278Z,4.97
2023-02-24T07:24:46.809Z,5.00
2023-02-24T07:27:24.297Z,5.01
2023-02-24T07:29:53.767Z,5.05
2023-02-24T07:32:23.906Z,5.06
2023-02-24T07:34:52.622Z,5.10
2023-02-24T07:37:25.404Z,5.15
2023-02-24T07:39:55.366Z,5.15
2023-02-24T07:42:24.341Z,5.22
2023-02-24T07:44:52.767Z,5.31
2023-02-24T07:47:22.096Z,5.35
2023-02-24T07:49:51.798Z,5.39
2023-02-24T07:52:20.485Z,5.46
2023-02-24T07:54:50.690Z,5.57
2023-02-24T07:57:19.399Z,5.58
2023-02-24T07:59:48.756Z,5.64
2023-02-24T08:02:19.256Z,5.66
2023-02-24T08:04:52.644Z,5.78
2023-02-24T08:07:25.571Z,5.82
2023-02-24T08:10:09.936Z,5.88
2023-02-24T08:12:43.578Z,5.93
2023-02-24T08:15:25.186Z,6.04
2023-02-24T08:18:00.637Z,6.15
2023-02-24T08:20:52.290Z,6.26
2023-02-24T08:23:20.709Z,6.34
2023-02-24T08:25:49.678Z,6.45
2023-02-24T08:28:19.184Z,6.64
2023-02-24T08:30:52.262Z,6.79
2023-02-24T08:33:23.391Z,6.86
2023-02-24T08:36:02.684Z,6.98
2023-02-24T08:38:42.764Z,7.14
2023-02-24T08:41:18.930Z,7.20
2023-02-24T08:43:50.017Z,7.38
2023-02-24T08:46:27.076Z,7.50
2023-02-24T08:48:58.513Z,7.42
2023-02-24T08:51:35.607Z,7.58
2023-02-24T08:54:17.180Z,7.66
2023-02-24T08:56:50.993Z,7.66
2023-02-24T08:59:35.618Z,7.64
2023-02-24T09:02:30.833Z,7.61
2023-02-24T09:05:13.874Z,7.59
2023-02-24T09:07:45.582Z,7.60
2023-02-24T09:10:19.558Z,7.66
2023-02-24T09:12:49.607Z,7.83
2023-02-24T09:15:17.960Z,7.92
2023-02-24T09:17:47.064Z,7.89
2023-02-24T09:20:34.705Z,7.93
2023-02-24T09:23:05.499Z,7.93
2023-02-24T09:25:51.231Z,8.06
2023-02-24T09:28:26.042Z,8.11
2023-02-24T09:30:56.216Z,8.09
2023-02-24T09:33:39.234Z,8.08
2023-02-24T09:36:31.007Z,8.20
2023-02-24T09:39:02.565Z,8.22
2023-02-24T09:41:33.337Z,8.14
2023-02-24T09:44:18.804Z,8.10
2023-02-24T09:46:56.083Z,8.26
2023-02-24T09:49:41.284Z,8.22
2023-02-24T09:52:18.810Z,8.21
2023-02-24T09:55:07.991Z,8.34
2023-02-24T09:58:04.386Z,8.30
2023-02-24T10:00:45.083Z,8.37
2023-02-24T10:03:43.127Z,8.41
2023-02-24T10:06:23.251Z,8.38
2023-02-24T10:09:11.978Z,8.37
2023-02-24T10:11:54.787Z,8.38
2023-02-24T10:14:24.183Z,8.45
2023-02-24T10:17:12.016Z,8.44
2023-02-24T10:19:41.658Z,8.40
2023-02-24T10:22:29.216Z,8.56
2023-02-24T10:25:37.230Z,8.52
2023-02-24T10:28:37.520Z,8.57
2023-02-24T10:31:26.445Z,8.62
2023-02-24T10:34:06.842Z,8.65
2023-02-24T10:36:37.425Z,8.67
2023-02-24T10:39:21.329Z,8.76
2023-02-24T10:41:58.879Z,8.71
2023-02-24T10:44:37.120Z,8.70
2023-02-24T10:47:13.852Z,8.74
2023-02-24T10:49:43.640Z,8.79
2023-02-24T10:52:40.429Z,8.78
2023-02-24T10:55:35.176Z,8.81
2023-02-24T10:58:07.702Z,8.95
2023-02-24T11:01:01.856Z,9.05
2023-02-24T11:03:46.577Z,8.99
2023-02-24T11:06:32.665Z,8.97
2023-02-24T11:09:19.950Z,9.02
2023-02-24T11:12:05.482Z,9.04
2023-02-24T11:15:03.138Z,9.11
2023-02-24T11:17:32.162Z,9.22
2023-02-24T11:20:11.856Z,9.19
2023-02-24T11:22:43.172Z,9.24
2023-02-24T11:25:47.566Z,9.20
2023-02-24T11:28:31.832Z,9.14
2023-02-24T11:31:15.263Z,9.26
2023-02-24T11:34:10.358Z,9.40
2023-02-24T11:36:59.083Z,9.42
2023-02-24T11:39:53.353Z,9.48
2023-02-24T11:42:33.309Z,9.48
2023-02-24T11:45:19.887Z,9.42
2023-02-24T11:48:00.258Z,9.46
2023-02-24T11:50:53.455Z,9.42
2023-02-24T11:53:50.895Z,9.49
2023-02-24T11:56:34.216Z,9.51
2023-02-24T11:59:12.604Z,9.51
2023-02-24T12:01:47.350Z,9.51
2023-02-24T12:04:34.172Z,9.55
2023-02-24T12:07:33.874Z,9.46
2023-02-24T12:10:17.126Z,9.55
2023-02-24T12:12:53.981Z,9.53
2023-02-24T12:15:24.974Z,9.55
2023-02-24T12:17:59.083Z,9.46
2023-02-24T12:20:42.843Z,9.40
2023-02-24T12:23:25.123Z,9.35
2023-02-24T12:26:14.309Z,9.37
2023-02-24T12:29:08.177Z,9.40
2023-02-24T12:31:56.562Z,9.55
2023-02-24T12:34:31.103Z,9.59
2023-02-24T12:37:18.201Z,9.55
2023-02-24T12:40:03.332Z,9.57
2023-02-24T12:42:56.854Z,9.70
2023-02-24T12:45:37.624Z,9.71
2023-02-24T12:48:08.034Z,9.82
2023-02-24T12:50:49.464Z,9.71
2023-02-24T12:53:37.458Z,9.62
2023-02-24T12:56:29.577Z,9.63
2023-02-24T12:59:05.875Z,9.61
2023-02-24T13:01:54.364Z,9.61
2023-02-24T13:04:52.168Z,9.63
2023-02-24T13:07:37.845Z,9.56
2023-02-24T13:10:21.482Z,9.58
2023-02-24T13:12:58.044Z,9.74
2023-02-24T13:15:32.327Z,9.78
2023-02-24T13:18:02.154Z,9.76
2023-02-24T13:20:36.882Z,9.81
2023-02-24T13:23:20.714Z,9.84
2023-02-24T13:25:53.769Z,9.76
2023-02-24T13:28:25.525Z,9.79
2023-02-24T13:31:03.082Z,9.94
2023-02-24T13:33:35.733Z,9.93
2023-02-24T13:36:23.781Z,9.96
2023-02-24T13:39:20.799Z,9.97
2023-02-24T13:41:49.163Z,9.92
2023-02-24T13:44:27.388Z,10.08
2023-02-24T13:47:29.007Z,10.15
2023-02-24T13:50:16.632Z,10.07
2023-02-24T13:52:59.646Z,10.07
2023-02-24T13:55:51.045Z,10.08
2023-02-24T13:58:40.749Z,10.17
2023-02-24T14:01:18.778Z,10.31
2023-02-24T14:04:06.299Z,10.48
2023-02-24T14:06:37.945Z,10.55
2023-02-24T14:09:07.018Z,10.56
2023-02-24T14:11:39.459Z,10.80
2023-02-24T14:14:17.780Z,10.91
2023-02-24T14:16:50.166Z,11.03
2023-02-24T14:19:18.505Z,11.02
2023-02-24T14:21:50.791Z,11.13
2023-02-24T14:24:20.488Z,11.00
2023-02-24T14:26:52.241Z,11.01
2023-02-24T14:29:22.961Z,11.00
2023-02-24T14:31:55.834Z,11.14
2023-02-24T14:34:28.812Z,11.16
2023-02-24T14:37:03.222Z,11.12
2023-02-24T14:39:35.130Z,11.02
2023-02-24T14:42:12.727Z,10.91
2023-02-24T14:44:45.858Z,11.09
2023-02-24T14:47:18.233Z,11.04
2023-02-24T14:50:03.473Z,10.99
2023-02-24T14:52:36.204Z,10.88
2023-02-24T14:55:22.544Z,10.83
2023-02-24T14:58:03.153Z,10.83
2023-02-24T15:00:37.811Z,10.79
2023-02-24T15:03:13.682Z,10.71
2023-02-24T15:05:46.203Z,10.70
2023-02-24T15:08:39.220Z,10.63
2023-02-24T15:11:23.108Z,10.59
2023-02-24T15:13:57.027Z,10.51
2023-02-24T15:16:35.833Z,10.58
2023-02-24T15:19:05.337Z,10.49
2023-02-24T15:21:40.992Z,10.45
2023-02-24T15:24:30.183Z,10.35
2023-02-24T15:27:02.453Z,10.37
2023-02-24T15:29:32.325Z,10.31
2023-02-24T15:32:01.838Z,10.20
2023-02-24T15:34:36.339Z,10.11
2023-02-24T15:37:17.974Z,10.16
2023-02-24T15:39:46.287Z,10.13
2023-02-24T15:42:29.062Z,9.95
2023-02-24T15:44:59.624Z,9.81
2023-02-24T15:47:34.805Z,9.66
2023-02-24T15:50:04.774Z,9.64
2023-02-24T15:52:34.538Z,9.80
2023-02-24T15:55:04.051Z,9.64
2023-02-24T15:57:34.749Z,9.62
2023-02-24T16:00:09.881Z,9.58
2023-02-24T16:02:37.843Z,9.56
2023-02-24T16:05:06.384Z,9.41
2023-02-24T16:07:38.780Z,9.33
2023-02-24T16:10:10.911Z,9.22
2023-02-24T16:12:47.006Z,9.15
2023-02-24T16:15:21.007Z,9.11
2023-02-24T16:17:52.367Z,9.09
2023-02-24T16:20:28.038Z,9.00
2023-02-24T16:22:58.741Z,8.90
2023-02-24T16:25:30.515Z,8.83
2023-02-24T16:27:58.641Z,8.81
2023-02-24T16:30:31.789Z,8.73
2023-02-24T16:33:05.139Z,8.70
2023-02-24T16:35:33.024Z,8.70
2023-02-24T16:38:01.098Z,8.67
2023-02-24T16:40:38.356Z,8.60
2023-02-24T16:43:06.950Z,8.64
2023-02-24T16:45:37.023Z,8.67
2023-02-24T16:48:09.865Z,8.65
2023-02-24T16:50:41.220Z,8.59
2023-02-24T16:53:16.189Z,8.58
2023-02-24T16:55:43.759Z,8.47
2023-02-24T16:58:13.242Z,8.52
2023-02-24T17:00:43.635Z,8.50
2023-02-24T17:03:21.087Z,8.49
2023-02-24T17:05:50.574Z,8.45
2023-02-24T17:08:19.093Z,8.42
2023-02-24T17:10:50.358Z,8.43
2023-02-24T17:13:21.050Z,8.39
2023-02-24T17:15:55.270Z,8.37
2023-02-24T17:18:25.674Z,8.30
2023-02-24T17:20:56.269Z,8.30
2023-02-24T17:23:24.894Z,8.24
2023-02-24T17:25:55.291Z,8.29
2023-02-24T17:28:23.075Z,8.26
2023-02-24T17:30:51.247Z,8.24
2023-02-24T17:33:20.799Z,8.34
2023-02-24T17:35:49.487Z,8.47
2023-02-24T17:38:19.811Z,8.56
2023-02-24T17:40:48.451Z,8.54
2023-02-24T17:43:16.698Z,8.54
2023-02-24T17:45:46.326Z,8.53
2023-02-24T17:48:15.083Z,8.37
2023-02-24T17:50:44.351Z,8.29
2023-02-24T17:53:12.941Z,8.34
2023-02-24T17:55:55.803Z,8.37
2023-02-24T17:58:28.271Z,8.35
2023-02-24T18:00:55.711Z,8.36
2023-02-24T18:03:23.596Z,8.43
2023-02-24T18:05:59.704Z,8.39
2023-02-24T18:08:28.764Z,8.43
2023-02-24T18:11:00.016Z,8.37
2023-02-24T18:13:31.465Z,8.42
2023-02-24T18:16:01.019Z,8.42
2023-02-24T18:18:31.435Z,8.34
2023-02-24T18:21:02.995Z,8.36
2023-02-24T18:23:30.922Z,8.37
2023-02-24T18:26:03.642Z,8.45
2023-02-24T18:28:32.255Z,8.38
2023-02-24T18:31:02.505Z,8.29
2023-02-24T18:33:31.537Z,8.21
2023-02-24T18:36:01.765Z,8.17
2023-02-24T18:38:31.645Z,8.15
2023-02-24T18:41:01.267Z,8.09
2023-02-24T18:43:30.763Z,8.09
2023-02-24T18:46:00.366Z,8.19
2023-02-24T18:48:30.536Z,8.30
2023-02-24T18:50:59.366Z,8.28
2023-02-24T18:53:31.302Z,8.25
2023-02-24T18:56:01.905Z,8.24
2023-02-24T18:58:32.089Z,8.31
2023-02-24T19:00:59.820Z,8.30
2023-02-24T19:03:28.092Z,8.28
2023-02-24T19:05:57.507Z,8.35
2023-02-24T19:08:28.991Z,8.28
2023-02-24T19:10:59.422Z,8.37
2023-02-24T19:13:27.688Z,8.40
2023-02-24T19:15:55.516Z,8.35
2023-02-24T19:18:24.010Z,8.25
2023-02-24T19:20:52.509Z,8.19
2023-02-24T19:23:20.981Z,8.12
2023-02-24T19:25:49.898Z,8.23
2023-02-24T19:28:18.303Z,8.19
2023-02-24T19:31:00.853Z,8.15
2023-02-24T19:33:47.720Z,8.11
2023-02-24T19:36:53.804Z,8.10
2023-02-24T19:39:54.285Z,8.08
2023-02-24T19:43:03.036Z,8.09
2023-02-24T19:46:12.606Z,8.25
2023-02-24T19:49:14.020Z,8.18
2023-02-24T19:52:22.843Z,8.20
2023-02-24T19:55:32.069Z,8.11
2023-02-24T19:58:40.969Z,8.07
2023-02-24T20:01:44.369Z,8.07
2023-02-24T20:04:51.901Z,8.04
2023-02-24T20:07:53.605Z,8.14
2023-02-24T20:11:12.247Z,8.18
2023-02-24T20:14:22.232Z,8.07
2023-02-24T20:17:31.018Z,7.96
2023-02-24T20:20:43.130Z,7.94
2023-02-24T20:23:46.056Z,7.93
2023-02-24T20:26:53.963Z,7.97
2023-02-24T20:29:57.869Z,7.94
2023-02-24T20:33:07.178Z,7.88
2023-02-24T20:36:23.569Z,7.80
2023-02-24T20:39:31.690Z,7.71
2023-02-24T20:42:40.456Z,7.78
2023-02-24T20:45:50.327Z,7.87
2023-02-24T23:10:19.274Z,6.12
2023-02-24T23:13:27.270Z,6.13
2023-02-24T23:16:38.351Z,6.13
2023-02-24T23:19:46.284Z,6.06
2023-02-24T23:22:50.572Z,6.05
2023-02-24T23:25:59.289Z,6.03
2023-02-24T23:28:59.637Z,6.04
2023-02-24T23:32:06.397Z,5.91
2023-02-24T23:35:06.353Z,5.89
2023-02-24T23:38:14.269Z,5.91
2023-02-24T23:41:23.309Z,5.89
2023-02-24T23:44:23.660Z,5.84
2023-02-24T23:47:30.266Z,5.70
2023-02-24T23:50:31.926Z,5.73
2023-02-24T23:53:32.262Z,5.69
2023-02-24T23:56:41.288Z,5.77
2023-02-24T23:59:42.254Z,5.79
